createdAt,value
2022-12-15T00:00:23.990Z,7.07
2022-12-15T00:03:09.978Z,5.47
2022-12-15T00:05:55.844Z,5.27
2022-12-15T00:08:41.297Z,5.00
2022-12-15T00:11:26.636Z,4.90
2022-12-15T00:14:13.820Z,5.10
2022-12-15T00:16:59.356Z,4.67
2022-12-15T00:19:45.150Z,4.77
2022-12-15T00:22:31.070Z,5.40
2022-12-15T00:25:17.953Z,4.80
2022-12-15T00:28:03.317Z,5.57
2022-12-15T00:30:50.484Z,4.70
2022-12-15T00:33:36.324Z,4.90
2022-12-15T00:36:22.048Z,5.90
2022-12-15T00:38:50.088Z,5.50
2022-12-15T00:41:19.348Z,5.30
2022-12-15T00:43:47.881Z,4.27
2022-12-15T00:46:34.981Z,4.20
2022-12-15T00:49:03.376Z,3.63
2022-12-15T00:51:49.144Z,3.83
2022-12-15T00:54:34.624Z,4.20
2022-12-15T00:57:20.318Z,4.50
2022-12-15T01:00:06.030Z,5.00
2022-12-15T01:02:53.276Z,4.50
2022-12-15T01:05:39.063Z,4.63
2022-12-15T01:08:24.502Z,4.17
2022-12-15T01:11:10.039Z,4.73
2022-12-15T01:13:55.520Z,5.10
2022-12-15T01:16:41.167Z,3.87
2022-12-15T01:19:28.722Z,4.20
2022-12-15T01:21:56.727Z,4.83
2022-12-15T01:24:24.794Z,4.10
2022-12-15T01:26:52.796Z,4.07
2022-12-15T01:29:20.795Z,4.90
2022-12-15T01:31:49.609Z,4.53
2022-12-15T01:34:22.498Z,4.40
2022-12-15T01:36:50.536Z,4.80
2022-12-15T01:39:18.582Z,4.50
2022-12-15T01:41:45.619Z,3.90
2022-12-15T01:44:19.669Z,3.40
2022-12-15T01:46:50.530Z,3.80
2022-12-15T01:49:27.342Z,4.33
2022-12-15T01:52:00.214Z,3.87
2022-12-15T01:54:32.830Z,4.67
2022-12-15T01:57:06.219Z,4.07
2022-12-15T01:59:38.660Z,3.63
2022-12-15T02:02:07.116Z,4.60
2022-12-15T02:04:37.735Z,4.83
2022-12-15T02:07:05.746Z,3.30
2022-12-15T02:09:33.789Z,4.70
2022-12-15T02:12:09.857Z,3.73
2022-12-15T02:14:57.763Z,4.80
2022-12-15T02:17:36.716Z,3.90
2022-12-15T02:20:52.345Z,4.43
2022-12-15T02:24:08.189Z,3.70
2022-12-15T02:27:12.530Z,4.20
2022-12-15T02:30:19.975Z,4.07
2022-12-15T02:33:09.374Z,4.20
2022-12-15T02:35:57.503Z,4.00
2022-12-15T02:38:35.775Z,3.47
2022-12-15T02:41:06.427Z,3.33
2022-12-15T02:43:39.808Z,3.93
2022-12-15T02:46:24.301Z,4.17
2022-12-15T02:49:04.233Z,4.20
2022-12-15T02:51:48.188Z,3.67
2022-12-15T02:54:39.256Z,4.10
2022-12-15T02:57:16.306Z,3.20
2022-12-15T02:59:55.288Z,3.40
2022-12-15T03:02:28.927Z,3.57
2022-12-15T03:04:57.358Z,3.13
2022-12-15T03:07:27.673Z,3.87
2022-12-15T03:09:57.261Z,3.73
2022-12-15T03:12:25.335Z,3.50
2022-12-15T03:14:53.336Z,3.43
2022-12-15T03:17:21.413Z,4.00
2022-12-15T03:19:50.841Z,3.33
2022-12-15T03:22:18.882Z,3.43
2022-12-15T03:24:46.864Z,3.43
2022-12-15T03:27:14.961Z,3.73
2022-12-15T03:29:42.967Z,4.47
2022-12-15T03:32:11.077Z,4.40
2022-12-15T03:34:39.108Z,3.57
2022-12-15T03:37:09.129Z,3.80
2022-12-15T03:39:37.093Z,3.40
2022-12-15T03:42:05.363Z,3.53
2022-12-15T03:44:33.409Z,4.30
2022-12-15T03:47:03.601Z,3.33
2022-12-15T03:49:31.982Z,3.80
2022-12-15T03:51:59.955Z,4.23
2022-12-15T03:54:29.324Z,3.50
2022-12-15T03:56:57.303Z,3.73
2022-12-15T03:59:25.240Z,3.50
2022-12-15T04:01:53.385Z,3.97
2022-12-15T04:04:21.469Z,3.33
2022-12-15T04:06:49.432Z,4.00
2022-12-15T04:09:18.397Z,4.00
2022-12-15T04:11:47.732Z,2.80
2022-12-15T04:14:15.712Z,3.50
2022-12-15T04:16:43.810Z,3.67
2022-12-15T04:19:29.758Z,3.13
2022-12-15T04:21:58.067Z,3.37
2022-12-15T04:24:43.572Z,3.40
2022-12-15T04:27:30.525Z,3.70
2022-12-15T04:30:15.951Z,3.40
2022-12-15T04:33:01.751Z,4.03
2022-12-15T04:35:49.913Z,3.07
2022-12-15T04:38:35.597Z,3.40
2022-12-15T04:41:21.503Z,3.60
2022-12-15T04:44:08.502Z,3.60
2022-12-15T04:46:54.181Z,3.17
2022-12-15T04:49:39.743Z,3.13
2022-12-15T04:52:25.289Z,3.40
2022-12-15T04:55:10.894Z,3.50
2022-12-15T04:57:56.449Z,3.27
2022-12-15T05:00:43.287Z,3.77
2022-12-15T05:03:28.688Z,3.40
2022-12-15T05:06:16.268Z,3.73
2022-12-15T05:09:01.764Z,3.80
2022-12-15T05:11:47.764Z,3.40
2022-12-15T05:14:33.330Z,3.33
2022-12-15T05:17:20.520Z,3.47
2022-12-15T05:20:06.415Z,3.40
2022-12-15T05:22:52.402Z,2.87
2022-12-15T05:25:38.222Z,3.90
2022-12-15T05:28:25.407Z,2.63
2022-12-15T05:31:11.068Z,4.70
2022-12-15T05:33:40.387Z,5.33
2022-12-15T05:36:09.494Z,6.30
2022-12-15T05:38:37.484Z,6.90
2022-12-15T05:41:05.624Z,9.97
2022-12-15T05:43:34.306Z,9.00
2022-12-15T05:46:04.952Z,9.83
2022-12-15T05:48:33.069Z,8.47
2022-12-15T05:51:06.193Z,8.97
2022-12-15T05:53:34.507Z,8.20
2022-12-15T05:56:03.556Z,9.20
2022-12-15T05:58:31.734Z,7.43
2022-12-15T06:01:05.944Z,7.30
2022-12-15T06:03:34.819Z,7.30
2022-12-15T06:06:05.018Z,7.83
2022-12-15T06:08:35.740Z,7.60
2022-12-15T06:11:04.058Z,7.50
2022-12-15T06:13:35.445Z,7.00
2022-12-15T06:16:06.717Z,6.87
2022-12-15T06:18:37.336Z,7.90
2022-12-15T06:21:09.139Z,7.50
2022-12-15T06:23:38.128Z,7.00
2022-12-15T06:26:12.016Z,6.90
2022-12-15T06:28:40.056Z,6.87
2022-12-15T06:31:10.486Z,7.63
2022-12-15T06:33:39.696Z,7.40
2022-12-15T06:36:12.149Z,7.20
2022-12-15T06:38:43.327Z,7.10
2022-12-15T06:41:13.957Z,7.07
2022-12-15T06:43:42.886Z,7.07
2022-12-15T06:46:11.351Z,6.17
2022-12-15T06:48:39.821Z,7.00
2022-12-15T06:51:15.089Z,6.53
2022-12-15T06:53:48.597Z,6.77
2022-12-15T06:56:22.452Z,6.20
2022-12-15T06:58:54.727Z,6.13
2022-12-15T07:01:25.204Z,7.33
2022-12-15T07:03:54.218Z,6.97
2022-12-15T07:06:24.075Z,6.87
2022-12-15T07:08:56.346Z,6.80
2022-12-15T07:11:24.702Z,6.13
2022-12-15T07:13:53.955Z,5.90
2022-12-15T07:16:24.717Z,7.03
2022-12-15T07:18:52.889Z,6.90
2022-12-15T07:21:20.949Z,6.33
2022-12-15T07:23:55.671Z,6.90
2022-12-15T07:26:24.672Z,5.93
2022-12-15T07:28:53.206Z,6.73
2022-12-15T07:31:21.372Z,6.37
2022-12-15T07:33:49.479Z,7.33
2022-12-15T07:36:18.330Z,6.87
2022-12-15T07:38:50.863Z,6.57
2022-12-15T07:41:21.321Z,6.00
2022-12-15T07:43:49.707Z,6.83
2022-12-15T07:46:18.241Z,6.80
2022-12-15T07:48:50.479Z,6.80
2022-12-15T07:51:21.048Z,6.10
2022-12-15T07:53:51.220Z,5.60
2022-12-15T07:56:21.437Z,6.30
2022-12-15T07:58:50.055Z,7.15
2022-12-15T08:01:19.416Z,6.57
2022-12-15T08:03:48.384Z,6.77
2022-12-15T08:06:17.652Z,6.60
2022-12-15T08:08:50.463Z,5.80
2022-12-15T08:11:24.924Z,5.40
2022-12-15T08:14:03.036Z,5.90
2022-12-15T08:16:34.848Z,5.73
2022-12-15T08:19:05.208Z,5.67
2022-12-15T08:21:34.147Z,5.10
2022-12-15T08:24:03.305Z,6.93
2022-12-15T08:26:33.033Z,6.87
2022-12-15T08:29:40.481Z,9.20
2022-12-15T08:31:53.173Z,9.83
2022-12-15T08:34:21.715Z,7.63
2022-12-15T08:36:50.132Z,6.70
2022-12-15T08:39:18.364Z,7.87
2022-12-15T08:41:48.391Z,6.93
2022-12-15T08:44:17.062Z,6.87
2022-12-15T08:46:45.413Z,6.70
2022-12-15T08:49:18.060Z,6.67
2022-12-15T08:51:49.962Z,6.33
2022-12-15T08:54:21.397Z,7.37
2022-12-15T08:56:51.078Z,6.50
2022-12-15T08:59:19.775Z,5.90
2022-12-15T09:01:48.149Z,6.43
2022-12-15T09:04:16.580Z,5.73
2022-12-15T09:06:50.574Z,5.60
2022-12-15T09:09:20.117Z,5.40
2022-12-15T09:11:49.754Z,5.30
2022-12-15T09:14:21.687Z,5.70
2022-12-15T09:16:53.809Z,6.90
2022-12-15T09:19:21.951Z,4.83
2022-12-15T09:21:50.009Z,6.07
2022-12-15T09:24:28.730Z,6.20
2022-12-15T09:27:03.010Z,6.13
2022-12-15T09:29:31.025Z,6.00
2022-12-15T09:31:59.441Z,5.87
2022-12-15T09:34:27.510Z,4.40
2022-12-15T09:36:56.672Z,7.00
2022-12-15T09:39:24.713Z,5.30
2022-12-15T09:41:57.035Z,5.53
2022-12-15T09:44:29.076Z,4.83
2022-12-15T09:47:09.291Z,5.33
2022-12-15T09:49:54.118Z,5.83
2022-12-15T09:52:27.295Z,5.40
2022-12-15T09:54:55.753Z,5.67
2022-12-15T09:57:34.693Z,6.30
2022-12-15T10:00:21.456Z,5.10
2022-12-15T10:03:22.997Z,5.30
2022-12-15T10:06:15.975Z,6.17
2022-12-15T10:08:50.528Z,6.20
2022-12-15T10:11:27.327Z,5.57
2022-12-15T10:14:00.771Z,5.00
2022-12-15T10:16:36.031Z,5.67
2022-12-15T10:19:09.997Z,6.00
2022-12-15T10:21:38.236Z,5.50
2022-12-15T10:25:00.368Z,5.80
2022-12-15T10:27:35.992Z,5.00
2022-12-15T10:30:07.215Z,5.43
2022-12-15T10:32:51.874Z,5.63
2022-12-15T10:35:27.548Z,5.83
2022-12-15T10:37:59.793Z,5.30
2022-12-15T10:40:50.538Z,5.20
2022-12-15T10:43:37.547Z,5.10
2022-12-15T10:46:14.495Z,5.43
2022-12-15T10:48:48.681Z,4.83
2022-12-15T10:51:38.423Z,4.57
2022-12-15T10:54:13.831Z,5.10
2022-12-15T10:56:50.721Z,5.10
2022-12-15T10:59:30.784Z,4.60
2022-12-15T11:02:29.475Z,5.30
2022-12-15T11:05:01.216Z,5.07
2022-12-15T11:07:36.379Z,4.50
2022-12-15T11:10:18.730Z,5.40
2022-12-15T11:12:58.958Z,5.00
2022-12-15T11:18:43.801Z,5.07
2022-12-15T11:21:21.503Z,4.50
2022-12-15T11:24:00.236Z,5.63
2022-12-15T11:26:44.724Z,5.43
2022-12-15T11:29:25.743Z,5.30
2022-12-15T11:31:55.474Z,4.90
2022-12-15T11:34:27.987Z,4.90
2022-12-15T11:37:11.703Z,4.93
2022-12-15T11:39:53.943Z,5.27
2022-12-15T11:42:45.287Z,4.60
2022-12-15T11:45:22.324Z,4.67
2022-12-15T11:47:53.879Z,5.00
2022-12-15T11:50:31.158Z,5.03
2022-12-15T11:53:22.168Z,4.90
2022-12-15T11:56:00.871Z,4.37
2022-12-15T11:58:56.296Z,4.27
2022-12-15T12:01:55.446Z,4.60
2022-12-15T12:04:28.366Z,4.80
2022-12-15T12:07:12.207Z,5.43
2022-12-15T12:10:01.288Z,4.80
2022-12-15T12:12:34.996Z,5.20
2022-12-15T12:15:26.097Z,5.00
2022-12-15T12:17:56.876Z,5.00
2022-12-15T12:20:34.785Z,4.70
2022-12-15T12:23:07.208Z,5.83
2022-12-15T12:25:44.595Z,5.23
2022-12-15T12:28:19.190Z,5.17
2022-12-15T12:33:44.951Z,5.50
2022-12-15T12:36:15.936Z,5.10
2022-12-15T12:38:50.940Z,5.20
2022-12-15T12:41:35.568Z,5.00
2022-12-15T12:44:13.865Z,5.13
2022-12-15T12:49:39.424Z,5.57
2022-12-15T12:52:22.088Z,5.30
2022-12-15T12:54:59.141Z,5.63
2022-12-15T12:57:36.577Z,5.07
2022-12-15T13:00:20.185Z,5.10
2022-12-15T13:03:21.053Z,5.50
2022-12-15T13:05:51.791Z,4.70
2022-12-15T13:08:51.208Z,4.97
2022-12-15T13:12:10.388Z,4.90
2022-12-15T13:14:51.993Z,4.60
2022-12-15T13:17:32.146Z,4.60
2022-12-15T13:20:23.438Z,5.17
2022-12-15T13:22:52.108Z,5.70
2022-12-15T13:25:41.329Z,4.80
2022-12-15T13:28:46.036Z,4.63
2022-12-15T13:31:33.423Z,5.10
2022-12-15T13:34:27.688Z,5.17
2022-12-15T13:37:03.685Z,4.73
2022-12-15T13:39:55.832Z,5.20
2022-12-15T13:42:35.840Z,5.17
2022-12-15T13:45:39.666Z,5.20
2022-12-15T13:48:35.361Z,5.00
2022-12-15T13:51:13.416Z,5.03
2022-12-15T13:53:51.508Z,5.27
2022-12-15T13:56:42.524Z,5.90
2022-12-15T13:59:23.680Z,5.30
2022-12-15T14:01:53.770Z,5.87
2022-12-15T14:04:24.039Z,4.30
2022-12-15T14:06:55.794Z,4.80
2022-12-15T14:09:29.922Z,4.87
2022-12-15T14:11:59.106Z,6.40
2022-12-15T14:14:30.705Z,4.37
2022-12-15T14:17:02.074Z,4.83
2022-12-15T14:19:40.984Z,4.80
2022-12-15T14:22:27.653Z,4.53
2022-12-15T14:25:03.433Z,4.50
2022-12-15T14:27:34.002Z,4.90
2022-12-15T14:30:22.741Z,5.10
2022-12-15T14:32:54.764Z,4.77
2022-12-15T14:35:30.526Z,4.60
2022-12-15T14:38:01.684Z,4.70
2022-12-15T14:40:30.957Z,4.93
2022-12-15T14:42:59.164Z,4.70
2022-12-15T14:45:30.726Z,4.90
2022-12-15T14:50:51.861Z,5.07
2022-12-15T14:53:22.264Z,5.20
2022-12-15T14:55:51.497Z,5.00
2022-12-15T14:58:35.847Z,5.23
2022-12-15T15:01:07.197Z,5.00
2022-12-15T15:03:09.675Z,5.13
2022-12-15T15:03:10.971Z,4.90
2022-12-15T15:03:40.760Z,5.10
2022-12-15T15:06:19.692Z,4.57
2022-12-15T15:08:50.336Z,4.97
2022-12-15T15:11:29.277Z,5.40
2022-12-15T15:14:00.439Z,4.90
2022-12-15T15:16:29.218Z,4.40
2022-12-15T15:18:58.268Z,4.60
2022-12-15T15:21:30.955Z,4.90
2022-12-15T15:24:01.553Z,4.67
2022-12-15T15:26:30.861Z,4.60
2022-12-15T15:28:59.339Z,4.30
2022-12-15T15:31:40.300Z,4.60
2022-12-15T15:34:09.197Z,5.00
2022-12-15T15:36:40.122Z,5.13
2022-12-15T15:39:15.123Z,4.43
2022-12-15T15:41:43.327Z,4.63
2022-12-15T15:44:15.489Z,5.27
2022-12-15T15:46:49.599Z,5.30
2022-12-15T15:49:21.212Z,4.70
2022-12-15T15:51:50.676Z,5.20
2022-12-15T15:54:23.991Z,4.70
2022-12-15T15:56:52.105Z,5.30
2022-12-15T15:59:22.241Z,4.87
2022-12-15T16:01:55.810Z,4.77
2022-12-15T16:04:24.500Z,4.60
2022-12-15T16:06:54.382Z,4.97
2022-12-15T16:09:23.593Z,4.87
2022-12-15T16:11:51.754Z,4.67
2022-12-15T16:14:19.842Z,4.37
2022-12-15T16:16:48.010Z,4.70
2022-12-15T16:19:16.039Z,5.13
2022-12-15T16:21:44.571Z,4.97
2022-12-15T16:24:18.794Z,5.00
2022-12-15T16:26:51.213Z,4.53
2022-12-15T16:29:21.728Z,4.57
2022-12-15T16:31:50.103Z,5.03
2022-12-15T16:34:19.165Z,4.40
2022-12-15T16:36:47.722Z,4.07
2022-12-15T16:39:30.469Z,3.77
2022-12-15T16:41:58.976Z,4.53
2022-12-15T16:44:29.158Z,3.90
2022-12-15T16:46:58.708Z,4.67
2022-12-15T16:49:27.534Z,4.40
2022-12-15T16:51:55.783Z,4.80
2022-12-15T16:54:27.577Z,4.50
2022-12-15T16:56:58.183Z,4.23
2022-12-15T16:59:35.901Z,4.60
2022-12-15T17:02:25.108Z,4.57
2022-12-15T17:04:55.096Z,5.50
2022-12-15T17:07:23.473Z,4.50
2022-12-15T17:09:52.842Z,5.80
2022-12-15T17:12:20.886Z,4.90
2022-12-15T17:14:48.931Z,5.23
2022-12-15T17:17:19.310Z,4.53
2022-12-15T17:20:20.017Z,4.50
2022-12-15T17:22:37.798Z,4.63
2022-12-15T17:25:14.383Z,4.63
2022-12-15T17:27:42.467Z,4.80
2022-12-15T17:30:15.802Z,4.57
2022-12-15T17:32:44.283Z,3.90
2022-12-15T17:35:12.903Z,4.60
2022-12-15T17:37:41.769Z,4.50
2022-12-15T17:40:20.985Z,5.03
2022-12-15T17:42:49.971Z,4.10
2022-12-15T17:45:21.624Z,5.00
2022-12-15T17:47:50.234Z,4.47
2022-12-15T17:50:19.234Z,5.40
2022-12-15T17:52:49.438Z,4.80
2022-12-15T17:55:34.851Z,4.43
2022-12-15T17:58:15.470Z,4.80
2022-12-15T18:00:49.069Z,4.23
2022-12-15T18:03:17.842Z,4.53
2022-12-15T18:05:47.579Z,4.80
2022-12-15T18:08:18.604Z,4.30
2022-12-15T18:10:51.370Z,4.67
2022-12-15T18:13:22.015Z,4.33
2022-12-15T18:15:51.397Z,4.40
2022-12-15T18:18:22.152Z,4.30
2022-12-15T18:20:51.758Z,5.47
2022-12-15T18:23:25.954Z,5.00
2022-12-15T18:26:01.157Z,4.50
2022-12-15T18:28:34.402Z,4.87
2022-12-15T18:31:10.681Z,4.80
2022-12-15T18:33:38.790Z,4.30
2022-12-15T18:36:07.643Z,4.87
2022-12-15T18:38:35.718Z,4.43
2022-12-15T18:41:05.703Z,4.07
2022-12-15T18:43:35.543Z,4.00
2022-12-15T18:46:03.721Z,4.53
2022-12-15T18:48:34.930Z,4.60
2022-12-15T18:51:12.934Z,3.87
2022-12-15T18:53:41.729Z,4.67
2022-12-15T18:56:14.769Z,4.50
2022-12-15T18:58:43.578Z,4.47
2022-12-15T19:01:11.794Z,4.43
2022-12-15T19:03:40.952Z,4.40
2022-12-15T19:06:25.691Z,5.27
2022-12-15T19:08:54.323Z,5.30
2022-12-15T19:11:30.801Z,4.80
2022-12-15T19:14:00.181Z,5.60
2022-12-15T19:16:49.500Z,5.90
2022-12-15T19:19:35.304Z,5.57
2022-12-15T19:22:29.561Z,5.53
2022-12-15T19:24:58.745Z,6.83
2022-12-15T19:27:28.655Z,6.27
2022-12-15T19:29:56.754Z,5.73
2022-12-15T19:32:26.643Z,5.97
2022-12-15T19:34:54.625Z,5.87
2022-12-15T19:37:28.307Z,5.83
2022-12-15T19:39:57.377Z,7.50
2022-12-15T19:42:30.431Z,6.10
2022-12-15T19:44:58.533Z,5.87
2022-12-15T19:47:27.265Z,6.50
2022-12-15T19:49:55.270Z,7.00
2022-12-15T19:52:23.295Z,6.70
2022-12-15T19:54:51.753Z,5.53
2022-12-15T19:57:20.965Z,6.30
2022-12-15T19:59:50.381Z,6.23
2022-12-15T20:02:20.677Z,6.37
2022-12-15T20:04:49.725Z,6.30
2022-12-15T20:07:20.711Z,6.40
2022-12-15T20:09:48.790Z,6.50
2022-12-15T20:12:19.340Z,6.07
2022-12-15T20:14:47.979Z,5.77
2022-12-15T20:17:17.400Z,6.20
2022-12-15T20:19:45.573Z,6.50
2022-12-15T20:22:17.703Z,5.60
2022-12-15T20:24:46.871Z,6.30
2022-12-15T20:27:17.475Z,5.97
2022-12-15T20:29:46.236Z,6.90
2022-12-15T20:32:18.622Z,6.33
2022-12-15T20:34:46.845Z,6.77
2022-12-15T20:37:21.732Z,7.07
2022-12-15T20:39:55.515Z,7.50
2022-12-15T20:42:25.943Z,7.77
2022-12-15T20:44:54.442Z,7.60
2022-12-15T20:47:27.031Z,6.90
2022-12-15T20:49:56.401Z,7.17
2022-12-15T20:52:27.459Z,6.97
2022-12-15T20:54:56.367Z,8.20
2022-12-15T20:57:24.522Z,7.87
2022-12-15T20:59:52.687Z,7.63
2022-12-15T21:02:25.246Z,7.50
2022-12-15T21:04:53.539Z,7.67
2022-12-15T21:07:21.771Z,7.40
2022-12-15T21:09:49.815Z,7.17
2022-12-15T21:12:20.982Z,6.37
2022-12-15T21:14:49.838Z,7.30
2022-12-15T21:17:19.807Z,7.67
2022-12-15T21:19:49.960Z,7.43
2022-12-15T21:22:22.562Z,7.07
2022-12-15T21:24:53.201Z,7.83
2022-12-15T21:27:22.161Z,7.17
2022-12-15T21:29:52.920Z,7.23
2022-12-15T21:32:22.029Z,7.53
2022-12-15T21:34:51.772Z,6.73
2022-12-15T21:37:26.661Z,6.87
2022-12-15T21:39:55.711Z,7.43
2022-12-15T21:42:24.278Z,6.93
2022-12-15T21:44:52.494Z,7.87
2022-12-15T21:47:46.769Z,5.57
2022-12-15T21:50:15.773Z,7.33
2022-12-15T21:52:45.044Z,6.90
2022-12-15T21:55:16.363Z,7.10
2022-12-15T21:57:45.013Z,6.70
2022-12-15T22:00:16.725Z,6.47
2022-12-15T22:02:45.621Z,7.20
2022-12-15T22:05:21.442Z,7.70
2022-12-15T22:07:50.531Z,6.67
2022-12-15T22:10:20.254Z,6.90
2022-12-15T22:12:58.985Z,6.23
2022-12-15T22:15:29.705Z,7.57
2022-12-15T22:17:58.127Z,6.97
2022-12-15T22:20:27.544Z,7.30
2022-12-15T22:22:55.953Z,8.00
2022-12-15T22:25:26.592Z,7.27
2022-12-15T22:27:55.207Z,7.40
2022-12-15T22:30:27.166Z,7.00
2022-12-15T22:32:56.031Z,7.03
2022-12-15T22:35:28.231Z,7.00
2022-12-15T22:37:56.648Z,8.17
2022-12-15T22:40:26.812Z,7.03
2022-12-15T22:42:58.194Z,8.50
2022-12-15T22:45:26.606Z,8.93
2022-12-15T22:47:55.362Z,6.73
2022-12-15T22:50:26.381Z,7.50
2022-12-15T22:52:56.234Z,7.57
2022-12-15T22:55:25.499Z,7.00
2022-12-15T22:57:58.232Z,7.97
2022-12-15T23:00:26.819Z,6.70
2022-12-15T23:02:55.349Z,7.67
2022-12-15T23:05:23.648Z,7.40
2022-12-15T23:07:52.237Z,7.20
2022-12-15T23:10:42.083Z,6.40
2022-12-15T23:13:10.434Z,7.87
2022-12-15T23:15:58.766Z,6.10
2022-12-15T23:18:27.019Z,6.40
2022-12-15T23:20:55.650Z,7.10
2022-12-15T23:23:25.710Z,7.10
2022-12-15T23:25:55.874Z,7.40
2022-12-15T23:28:24.189Z,7.10
2022-12-15T23:30:54.189Z,6.97
2022-12-15T23:33:24.947Z,7.07
2022-12-15T23:35:54.909Z,6.27
2022-12-15T23:38:24.051Z,6.47
2022-12-15T23:40:56.233Z,6.73
2022-12-15T23:43:26.425Z,7.20
2022-12-15T23:45:59.332Z,6.50
2022-12-15T23:48:32.621Z,8.13
2022-12-15T23:51:06.703Z,6.63
2022-12-15T23:53:36.009Z,6.17
2022-12-15T23:56:12.252Z,6.83
2022-12-15T23:58:42.269Z,6.70
